sensor_id;sensor_type;location;lat;lon;timestamp;P1;durP1;ratioP1;P2;durP2;ratioP2
19402;SDS011;9837;48.888;8.998;2024-03-23T00:55:35;4.03;;;2.20;;
19402;SDS011;9837;48.888;8.998;2024-03-23T00:58:01;4.33;;;2.30;;
19402;SDS011;9837;48.888;8.998;2024-03-23T01:00:27;3.73;;;2.37;;
19402;SDS011;9837;48.888;8.998;2024-03-23T01:02:53;3.83;;;2.40;;
19402;SDS011;9837;48.888;8.998;2024-03-23T01:05:19;3.43;;;2.63;;
19402;SDS011;9837;48.888;8.998;2024-03-23T01:07:45;3.97;;;2.70;;
19402;SDS011;9837;48.888;8.998;2024-03-23T01:10:11;6.70;;;2.30;;
19402;SDS011;9837;48.888;8.998;2024-03-23T01:12:37;2.93;;;2.33;;
19402;SDS011;9837;48.888;8.998;2024-03-23T01:15:03;3.63;;;2.40;;
19402;SDS011;9837;48.888;8.998;2024-03-23T01:17:28;9.07;;;2.60;;
19402;SDS011;9837;48.888;8.998;2024-03-23T01:19:54;7.20;;;2.30;;
19402;SDS011;9837;48.888;8.998;2024-03-23T01:22:20;7.90;;;2.40;;
19402;SDS011;9837;48.888;8.998;2024-03-23T01:24:46;4.93;;;2.43;;
19402;SDS011;9837;48.888;8.998;2024-03-23T01:27:12;3.73;;;2.40;;
19402;SDS011;9837;48.888;8.998;2024-03-23T01:29:38;4.30;;;2.67;;
19402;SDS011;9837;48.888;8.998;2024-03-23T01:32:04;2.93;;;2.30;;
19402;SDS011;9837;48.888;8.998;2024-03-23T01:34:30;3.63;;;2.43;;
19402;SDS011;9837;48.888;8.998;2024-03-23T01:36:56;4.50;;;2.43;;
19402;SDS011;9837;48.888;8.998;2024-03-23T01:39:22;3.73;;;2.47;;
19402;SDS011;9837;48.888;8.998;2024-03-23T01:41:48;3.27;;;2.30;;
19402;SDS011;9837;48.888;8.998;2024-03-23T01:44:14;3.33;;;2.30;;
19402;SDS011;9837;48.888;8.998;2024-03-23T01:46:41;2.53;;;2.30;;
19402;SDS011;9837;48.888;8.998;2024-03-23T01:49:07;4.07;;;2.23;;
19402;SDS011;9837;48.888;8.998;2024-03-23T01:51:33;2.80;;;2.23;;
19402;SDS011;9837;48.888;8.998;2024-03-23T01:54:00;3.93;;;2.23;;
19402;SDS011;9837;48.888;8.998;2024-03-23T01:56:27;4.63;;;2.37;;
19402;SDS011;9837;48.888;8.998;2024-03-23T01:58:54;4.03;;;2.17;;
19402;SDS011;9837;48.888;8.998;2024-03-23T02:01:19;5.47;;;2.67;;
19402;SDS011;9837;48.888;8.998;2024-03-23T02:03:46;5.57;;;2.50;;
19402;SDS011;9837;48.888;8.998;2024-03-23T02:06:11;5.30;;;2.50;;
19402;SDS011;9837;48.888;8.998;2024-03-23T02:08:37;3.83;;;2.37;;
19402;SDS011;9837;48.888;8.998;2024-03-23T02:11:04;2.70;;;2.10;;
19402;SDS011;9837;48.888;8.998;2024-03-23T02:13:30;3.33;;;2.57;;
19402;SDS011;9837;48.888;8.998;2024-03-23T02:15:56;4.20;;;2.50;;
19402;SDS011;9837;48.888;8.998;2024-03-23T02:18:23;6.30;;;2.47;;
19402;SDS011;9837;48.888;8.998;2024-03-23T02:20:49;6.03;;;2.33;;
19402;SDS011;9837;48.888;8.998;2024-03-23T02:23:15;6.63;;;2.70;;
19402;SDS011;9837;48.888;8.998;2024-03-23T02:25:42;3.20;;;2.63;;
19402;SDS011;9837;48.888;8.998;2024-03-23T02:28:08;5.90;;;2.57;;
19402;SDS011;9837;48.888;8.998;2024-03-23T02:30:34;3.00;;;2.67;;
19402;SDS011;9837;48.888;8.998;2024-03-23T02:33:00;4.63;;;2.50;;
19402;SDS011;9837;48.888;8.998;2024-03-23T02:35:26;6.10;;;2.80;;
19402;SDS011;9837;48.888;8.998;2024-03-23T02:37:52;3.87;;;2.30;;
19402;SDS011;9837;48.888;8.998;2024-03-23T02:40:19;3.40;;;2.40;;
19402;SDS011;9837;48.888;8.998;2024-03-23T02:42:45;3.37;;;2.23;;
19402;SDS011;9837;48.888;8.998;2024-03-23T02:45:11;5.90;;;2.53;;
19402;SDS011;9837;48.888;8.998;2024-03-23T02:47:37;5.70;;;2.30;;
19402;SDS011;9837;48.888;8.998;2024-03-23T02:50:03;2.00;;;1.83;;
19402;SDS011;9837;48.888;8.998;2024-03-23T02:52:29;3.30;;;2.27;;
19402;SDS011;9837;48.888;8.998;2024-03-23T02:54:56;2.77;;;2.30;;
19402;SDS011;9837;48.888;8.998;2024-03-23T02:57:22;2.57;;;2.20;;
19402;SDS011;9837;48.888;8.998;2024-03-23T02:59:48;5.60;;;2.40;;
19402;SDS011;9837;48.888;8.998;2024-03-23T03:02:14;2.70;;;2.20;;
19402;SDS011;9837;48.888;8.998;2024-03-23T03:04:40;2.60;;;2.40;;
19402;SDS011;9837;48.888;8.998;2024-03-23T03:07:06;6.60;;;2.37;;
19402;SDS011;9837;48.888;8.998;2024-03-23T03:09:32;5.47;;;2.30;;
19402;SDS011;9837;48.888;8.998;2024-03-23T03:12:00;2.80;;;2.20;;
19402;SDS011;9837;48.888;8.998;2024-03-23T03:14:26;2.93;;;2.07;;
19402;SDS011;9837;48.888;8.998;2024-03-23T03:16:51;2.97;;;2.27;;
19402;SDS011;9837;48.888;8.998;2024-03-23T03:19:17;2.47;;;2.10;;
19402;SDS011;9837;48.888;8.998;2024-03-23T03:21:43;4.70;;;2.30;;
19402;SDS011;9837;48.888;8.998;2024-03-23T03:24:09;3.20;;;2.60;;
19402;SDS011;9837;48.888;8.998;2024-03-23T03:26:35;3.80;;;2.23;;
19402;SDS011;9837;48.888;8.998;2024-03-23T03:29:02;8.20;;;2.70;;
19402;SDS011;9837;48.888;8.998;2024-03-23T03:31:28;3.50;;;2.47;;
19402;SDS011;9837;48.888;8.998;2024-03-23T03:33:54;3.27;;;2.17;;
19402;SDS011;9837;48.888;8.998;2024-03-23T03:36:20;2.80;;;2.23;;
19402;SDS011;9837;48.888;8.998;2024-03-23T03:38:46;3.67;;;2.40;;
19402;SDS011;9837;48.888;8.998;2024-03-23T03:41:12;3.60;;;2.20;;
19402;SDS011;9837;48.888;8.998;2024-03-23T03:43:38;3.90;;;2.30;;
19402;SDS011;9837;48.888;8.998;2024-03-23T03:46:03;3.80;;;2.50;;
19402;SDS011;9837;48.888;8.998;2024-03-23T03:48:29;5.10;;;2.50;;
19402;SDS011;9837;48.888;8.998;2024-03-23T03:50:55;3.73;;;2.40;;
19402;SDS011;9837;48.888;8.998;2024-03-23T03:53:21;3.50;;;2.20;;
19402;SDS011;9837;48.888;8.998;2024-03-23T03:55:47;2.80;;;2.37;;
19402;SDS011;9837;48.888;8.998;2024-03-23T03:58:13;2.67;;;2.23;;
19402;SDS011;9837;48.888;8.998;2024-03-23T04:00:39;2.57;;;2.07;;
19402;SDS011;9837;48.888;8.998;2024-03-23T04:03:05;5.00;;;2.53;;
19402;SDS011;9837;48.888;8.998;2024-03-23T04:05:31;3.20;;;2.40;;
19402;SDS011;9837;48.888;8.998;2024-03-23T04:07:57;6.07;;;3.20;;
19402;SDS011;9837;48.888;8.998;2024-03-23T04:10:23;3.80;;;2.40;;
19402;SDS011;9837;48.888;8.998;2024-03-23T04:12:49;4.97;;;2.80;;
19402;SDS011;9837;48.888;8.998;2024-03-23T04:15:15;4.83;;;2.83;;
19402;SDS011;9837;48.888;8.998;2024-03-23T04:17:41;8.30;;;3.97;;
19402;SDS011;9837;48.888;8.998;2024-03-23T04:20:08;10.23;;;6.10;;
19402;SDS011;9837;48.888;8.998;2024-03-23T04:22:36;12.10;;;8.13;;
19402;SDS011;9837;48.888;8.998;2024-03-23T04:25:02;15.70;;;9.40;;
19402;SDS011;9837;48.888;8.998;2024-03-23T04:27:31;23.13;;;10.83;;
19402;SDS011;9837;48.888;8.998;2024-03-23T04:29:57;16.43;;;10.10;;
19402;SDS011;9837;48.888;8.998;2024-03-23T04:32:25;16.07;;;10.77;;
19402;SDS011;9837;48.888;8.998;2024-03-23T04:34:52;15.60;;;11.13;;
19402;SDS011;9837;48.888;8.998;2024-03-23T04:37:17;13.93;;;10.43;;
19402;SDS011;9837;48.888;8.998;2024-03-23T04:39:44;15.53;;;10.73;;
19402;SDS011;9837;48.888;8.998;2024-03-23T04:42:10;15.10;;;10.37;;
19402;SDS011;9837;48.888;8.998;2024-03-23T04:44:37;17.77;;;10.40;;
19402;SDS011;9837;48.888;8.998;2024-03-23T04:47:03;12.33;;;9.47;;
19402;SDS011;9837;48.888;8.998;2024-03-23T04:49:28;17.83;;;10.33;;
19402;SDS011;9837;48.888;8.998;2024-03-23T04:51:54;18.30;;;11.37;;
19402;SDS011;9837;48.888;8.998;2024-03-23T04:54:20;15.07;;;11.07;;
19402;SDS011;9837;48.888;8.998;2024-03-23T04:56:46;16.73;;;10.80;;
19402;SDS011;9837;48.888;8.998;2024-03-23T04:59:12;16.57;;;11.13;;
19402;SDS011;9837;48.888;8.998;2024-03-23T05:01:38;19.53;;;12.50;;
19402;SDS011;9837;48.888;8.998;2024-03-23T05:04:06;15.70;;;11.90;;
19402;SDS011;9837;48.888;8.998;2024-03-23T05:06:32;17.90;;;11.47;;
19402;SDS011;9837;48.888;8.998;2024-03-23T05:08:59;16.13;;;11.30;;
19402;SDS011;9837;48.888;8.998;2024-03-23T05:11:27;18.93;;;11.97;;
19402;SDS011;9837;48.888;8.998;2024-03-23T05:13:53;15.90;;;10.63;;
19402;SDS011;9837;48.888;8.998;2024-03-23T05:16:19;14.50;;;10.63;;
19402;SDS011;9837;48.888;8.998;2024-03-23T05:18:45;13.10;;;9.80;;
19402;SDS011;9837;48.888;8.998;2024-03-23T05:21:11;14.67;;;9.77;;
19402;SDS011;9837;48.888;8.998;2024-03-23T05:23:37;15.30;;;9.57;;
19402;SDS011;9837;48.888;8.998;2024-03-23T05:26:03;14.37;;;9.50;;
19402;SDS011;9837;48.888;8.998;2024-03-23T05:28:29;14.90;;;9.67;;
19402;SDS011;9837;48.888;8.998;2024-03-23T05:30:55;12.40;;;8.93;;
19402;SDS011;9837;48.888;8.998;2024-03-23T05:33:24;13.57;;;8.67;;
19402;SDS011;9837;48.888;8.998;2024-03-23T05:35:56;10.13;;;6.87;;
19402;SDS011;9837;48.888;8.998;2024-03-23T05:38:23;10.47;;;6.77;;
19402;SDS011;9837;48.888;8.998;2024-03-23T05:40:55;11.67;;;7.10;;
19402;SDS011;9837;48.888;8.998;2024-03-23T05:43:21;9.20;;;6.77;;
19402;SDS011;9837;48.888;8.998;2024-03-23T05:45:57;10.30;;;5.97;;
19402;SDS011;9837;48.888;8.998;2024-03-23T05:48:25;9.13;;;6.20;;
19402;SDS011;9837;48.888;8.998;2024-03-23T05:50:51;8.67;;;6.27;;
19402;SDS011;9837;48.888;8.998;2024-03-23T05:53:17;10.80;;;7.07;;
19402;SDS011;9837;48.888;8.998;2024-03-23T05:55:45;8.50;;;6.40;;
19402;SDS011;9837;48.888;8.998;2024-03-23T05:58:12;9.07;;;6.40;;
19402;SDS011;9837;48.888;8.998;2024-03-23T06:00:38;11.33;;;6.80;;
19402;SDS011;9837;48.888;8.998;2024-03-23T06:03:04;12.40;;;7.00;;
19402;SDS011;9837;48.888;8.998;2024-03-23T06:05:30;9.30;;;6.53;;
19402;SDS011;9837;48.888;8.998;2024-03-23T06:07:56;9.60;;;5.63;;
19402;SDS011;9837;48.888;8.998;2024-03-23T06:10:22;6.83;;;5.10;;
19402;SDS011;9837;48.888;8.998;2024-03-23T06:12:48;10.87;;;5.40;;
19402;SDS011;9837;48.888;8.998;2024-03-23T06:15:16;6.60;;;4.60;;
19402;SDS011;9837;48.888;8.998;2024-03-23T06:17:43;7.30;;;4.40;;
19402;SDS011;9837;48.888;8.998;2024-03-23T06:20:09;6.10;;;3.50;;
19402;SDS011;9837;48.888;8.998;2024-03-23T06:22:35;4.30;;;3.07;;
19402;SDS011;9837;48.888;8.998;2024-03-23T06:25:01;4.23;;;3.67;;
19402;SDS011;9837;48.888;8.998;2024-03-23T06:27:27;4.03;;;3.20;;
19402;SDS011;9837;48.888;8.998;2024-03-23T06:29:54;4.90;;;3.30;;
19402;SDS011;9837;48.888;8.998;2024-03-23T06:32:20;3.40;;;2.70;;
19402;SDS011;9837;48.888;8.998;2024-03-23T06:34:46;3.70;;;2.43;;
19402;SDS011;9837;48.888;8.998;2024-03-23T06:37:12;3.63;;;2.20;;
19402;SDS011;9837;48.888;8.998;2024-03-23T06:39:38;2.87;;;2.17;;
19402;SDS011;9837;48.888;8.998;2024-03-23T06:42:04;2.27;;;2.07;;
19402;SDS011;9837;48.888;8.998;2024-03-23T06:44:30;5.40;;;2.10;;
19402;SDS011;9837;48.888;8.998;2024-03-23T06:46:56;2.50;;;1.93;;
19402;SDS011;9837;48.888;8.998;2024-03-23T06:49:22;1.43;;;1.30;;
19402;SDS011;9837;48.888;8.998;2024-03-23T06:51:48;1.40;;;1.30;;
19402;SDS011;9837;48.888;8.998;2024-03-23T06:54:16;1.17;;;1.07;;
19402;SDS011;9837;48.888;8.998;2024-03-23T06:56:41;1.40;;;1.07;;
19402;SDS011;9837;48.888;8.998;2024-03-23T06:59:07;1.20;;;1.10;;
19402;SDS011;9837;48.888;8.998;2024-03-23T07:01:33;1.30;;;1.20;;
19402;SDS011;9837;48.888;8.998;2024-03-23T07:04:00;1.30;;;1.20;;
19402;SDS011;9837;48.888;8.998;2024-03-23T07:06:26;0.90;;;0.90;;
19402;SDS011;9837;48.888;8.998;2024-03-23T07:08:52;1.60;;;1.23;;
19402;SDS011;9837;48.888;8.998;2024-03-23T07:11:19;1.10;;;1.10;;
19402;SDS011;9837;48.888;8.998;2024-03-23T07:13:45;1.30;;;1.20;;
19402;SDS011;9837;48.888;8.998;2024-03-23T07:16:11;1.53;;;0.97;;
19402;SDS011;9837;48.888;8.998;2024-03-23T07:18:38;1.17;;;1.13;;
19402;SDS011;9837;48.888;8.998;2024-03-23T07:21:04;1.03;;;1.03;;
19402;SDS011;9837;48.888;8.998;2024-03-23T07:23:31;0.80;;;0.80;;
19402;SDS011;9837;48.888;8.998;2024-03-23T07:26:01;0.83;;;0.83;;
19402;SDS011;9837;48.888;8.998;2024-03-23T07:28:29;1.10;;;1.10;;
19402;SDS011;9837;48.888;8.998;2024-03-23T07:31:01;1.07;;;1.00;;
19402;SDS011;9837;48.888;8.998;2024-03-23T07:33:27;1.03;;;0.90;;
19402;SDS011;9837;48.888;8.998;2024-03-23T07:35:53;1.00;;;0.90;;
19402;SDS011;9837;48.888;8.998;2024-03-23T07:38:19;1.37;;;1.03;;
19402;SDS011;9837;48.888;8.998;2024-03-23T07:40:45;0.90;;;0.90;;
19402;SDS011;9837;48.888;8.998;2024-03-23T07:43:11;0.80;;;0.80;;
19402;SDS011;9837;48.888;8.998;2024-03-23T07:45:37;1.47;;;1.00;;
19402;SDS011;9837;48.888;8.998;2024-03-23T07:48:03;0.80;;;0.80;;
19402;SDS011;9837;48.888;8.998;2024-03-23T07:50:29;2.13;;;1.20;;
19402;SDS011;9837;48.888;8.998;2024-03-23T07:52:55;1.00;;;1.00;;
19402;SDS011;9837;48.888;8.998;2024-03-23T07:55:21;1.20;;;1.10;;
19402;SDS011;9837;48.888;8.998;2024-03-23T07:57:47;0.80;;;0.80;;
19402;SDS011;9837;48.888;8.998;2024-03-23T08:00:13;1.37;;;0.83;;
19402;SDS011;9837;48.888;8.998;2024-03-23T08:02:39;0.43;;;0.43;;
19402;SDS011;9837;48.888;8.998;2024-03-23T08:05:05;0.50;;;0.50;;
19402;SDS011;9837;48.888;8.998;2024-03-23T08:07:30;0.60;;;0.60;;
19402;SDS011;9837;48.888;8.998;2024-03-23T08:09:56;0.73;;;0.73;;
19402;SDS011;9837;48.888;8.998;2024-03-23T08:12:24;0.87;;;0.80;;
19402;SDS011;9837;48.888;8.998;2024-03-23T08:14:50;0.60;;;0.60;;
19402;SDS011;9837;48.888;8.998;2024-03-23T08:17:15;1.80;;;0.70;;
19402;SDS011;9837;48.888;8.998;2024-03-23T08:19:41;0.63;;;0.53;;
19402;SDS011;9837;48.888;8.998;2024-03-23T08:22:07;2.13;;;0.90;;
19402;SDS011;9837;48.888;8.998;2024-03-23T08:24:34;0.67;;;0.67;;
19402;SDS011;9837;48.888;8.998;2024-03-23T08:26:59;0.60;;;0.60;;
19402;SDS011;9837;48.888;8.998;2024-03-23T08:29:25;1.63;;;0.53;;
19402;SDS011;9837;48.888;8.998;2024-03-23T08:31:51;1.63;;;1.00;;
19402;SDS011;9837;48.888;8.998;2024-03-23T08:34:17;4.30;;;1.40;;
19402;SDS011;9837;48.888;8.998;2024-03-23T08:36:43;3.03;;;1.70;;
19402;SDS011;9837;48.888;8.998;2024-03-23T08:39:09;4.20;;;1.40;;
19402;SDS011;9837;48.888;8.998;2024-03-23T08:41:35;2.53;;;1.50;;
19402;SDS011;9837;48.888;8.998;2024-03-23T08:44:01;1.70;;;1.50;;
19402;SDS011;9837;48.888;8.998;2024-03-23T08:46:27;4.57;;;1.93;;
19402;SDS011;9837;48.888;8.998;2024-03-23T08:48:53;2.97;;;2.00;;
19402;SDS011;9837;48.888;8.998;2024-03-23T08:51:19;4.50;;;1.90;;
19402;SDS011;9837;48.888;8.998;2024-03-23T08:53:45;4.63;;;2.03;;
19402;SDS011;9837;48.888;8.998;2024-03-23T08:56:11;6.70;;;2.10;;
19402;SDS011;9837;48.888;8.998;2024-03-23T08:58:37;4.90;;;2.10;;
19402;SDS011;9837;48.888;8.998;2024-03-23T09:01:09;6.93;;;2.53;;
19402;SDS011;9837;48.888;8.998;2024-03-23T09:03:38;5.00;;;2.27;;
19402;SDS011;9837;48.888;8.998;2024-03-23T09:06:11;6.27;;;2.50;;
19402;SDS011;9837;48.888;8.998;2024-03-23T09:08:38;3.37;;;2.27;;
19402;SDS011;9837;48.888;8.998;2024-03-23T09:11:06;5.20;;;2.70;;
19402;SDS011;9837;48.888;8.998;2024-03-23T10:06:01;10.47;;;3.00;;
19402;SDS011;9837;48.888;8.998;2024-03-23T10:08:28;6.80;;;3.00;;
19402;SDS011;9837;48.888;8.998;2024-03-23T10:10:54;4.93;;;2.83;;
19402;SDS011;9837;48.888;8.998;2024-03-23T10:13:24;10.87;;;3.67;;
19402;SDS011;9837;48.888;8.998;2024-03-23T10:15:54;14.43;;;4.03;;
19402;SDS011;9837;48.888;8.998;2024-03-23T10:18:24;6.20;;;3.70;;
19402;SDS011;9837;48.888;8.998;2024-03-23T10:23:36;9.57;;;3.87;;
19402;SDS011;9837;48.888;8.998;2024-03-23T10:26:13;7.23;;;3.20;;
19402;SDS011;9837;48.888;8.998;2024-03-23T10:29:00;12.13;;;3.50;;
19402;SDS011;9837;48.888;8.998;2024-03-23T10:31:27;8.33;;;3.30;;
19402;SDS011;9837;48.888;8.998;2024-03-23T10:33:53;11.87;;;3.57;;
19402;SDS011;9837;48.888;8.998;2024-03-23T10:36:20;8.97;;;3.50;;
19402;SDS011;9837;48.888;8.998;2024-03-23T10:38:46;5.50;;;3.40;;
19402;SDS011;9837;48.888;8.998;2024-03-23T10:41:13;8.73;;;3.83;;
19402;SDS011;9837;48.888;8.998;2024-03-23T10:43:39;10.83;;;4.57;;
19402;SDS011;9837;48.888;8.998;2024-03-23T10:48:58;10.07;;;4.70;;
19402;SDS011;9837;48.888;8.998;2024-03-23T10:51:24;10.73;;;4.93;;
19402;SDS011;9837;48.888;8.998;2024-03-23T10:59:32;7.17;;;3.90;;
19402;SDS011;9837;48.888;8.998;2024-03-23T11:01:59;9.17;;;4.17;;
19402;SDS011;9837;48.888;8.998;2024-03-23T11:04:35;8.60;;;4.30;;
19402;SDS011;9837;48.888;8.998;2024-03-23T11:09:52;6.77;;;4.77;;
19402;SDS011;9837;48.888;8.998;2024-03-23T11:14:47;7.70;;;4.80;;
19402;SDS011;9837;48.888;8.998;2024-03-23T11:17:17;7.37;;;4.47;;
19402;SDS011;9837;48.888;8.998;2024-03-23T11:19:57;7.03;;;4.20;;
19402;SDS011;9837;48.888;8.998;2024-03-23T11:25:16;8.53;;;4.20;;
19402;SDS011;9837;48.888;8.998;2024-03-23T11:27:42;9.27;;;4.37;;
19402;SDS011;9837;48.888;8.998;2024-03-23T11:30:21;6.20;;;3.57;;
19402;SDS011;9837;48.888;8.998;2024-03-23T11:32:49;8.20;;;3.60;;
19402;SDS011;9837;48.888;8.998;2024-03-23T11:35:36;5.87;;;3.40;;
19402;SDS011;9837;48.888;8.998;2024-03-23T11:38:07;8.57;;;3.23;;
19402;SDS011;9837;48.888;8.998;2024-03-23T11:40:34;4.70;;;2.80;;
19402;SDS011;9837;48.888;8.998;2024-03-23T11:43:07;5.17;;;2.33;;
19402;SDS011;9837;48.888;8.998;2024-03-23T11:45:35;4.23;;;2.00;;
19402;SDS011;9837;48.888;8.998;2024-03-23T11:48:02;5.07;;;2.50;;
19402;SDS011;9837;48.888;8.998;2024-03-23T11:50:31;5.00;;;1.63;;
19402;SDS011;9837;48.888;8.998;2024-03-23T11:53:07;3.43;;;1.80;;
19402;SDS011;9837;48.888;8.998;2024-03-23T11:56:05;4.47;;;2.03;;
19402;SDS011;9837;48.888;8.998;2024-03-23T11:58:30;12.03;;;1.97;;
19402;SDS011;9837;48.888;8.998;2024-03-23T12:00:58;6.20;;;2.10;;
19402;SDS011;9837;48.888;8.998;2024-03-23T12:03:27;6.77;;;1.70;;
19402;SDS011;9837;48.888;8.998;2024-03-23T12:05:54;2.93;;;1.70;;
19402;SDS011;9837;48.888;8.998;2024-03-23T12:08:24;5.87;;;2.23;;
19402;SDS011;9837;48.888;8.998;2024-03-23T12:11:04;8.83;;;1.97;;
19402;SDS011;9837;48.888;8.998;2024-03-23T12:13:29;3.97;;;2.00;;
19402;SDS011;9837;48.888;8.998;2024-03-23T12:15:58;6.20;;;1.70;;
19402;SDS011;9837;48.888;8.998;2024-03-23T12:18:37;5.40;;;2.30;;
19402;SDS011;9837;48.888;8.998;2024-03-23T12:21:03;7.67;;;1.93;;
19402;SDS011;9837;48.888;8.998;2024-03-23T12:23:29;5.13;;;2.47;;
19402;SDS011;9837;48.888;8.998;2024-03-23T12:25:55;5.47;;;2.63;;
19402;SDS011;9837;48.888;8.998;2024-03-23T12:28:21;5.90;;;2.87;;
19402;SDS011;9837;48.888;8.998;2024-03-23T12:30:47;8.70;;;2.77;;
19402;SDS011;9837;48.888;8.998;2024-03-23T12:33:12;5.87;;;2.50;;
19402;SDS011;9837;48.888;8.998;2024-03-23T12:35:38;6.17;;;2.33;;
19402;SDS011;9837;48.888;8.998;2024-03-23T12:38:04;9.40;;;2.63;;
19402;SDS011;9837;48.888;8.998;2024-03-23T12:40:29;8.90;;;2.60;;
19402;SDS011;9837;48.888;8.998;2024-03-23T12:42:55;5.90;;;2.30;;
19402;SDS011;9837;48.888;8.998;2024-03-23T12:45:22;11.73;;;2.53;;
19402;SDS011;9837;48.888;8.998;2024-03-23T12:47:48;4.97;;;2.23;;
19402;SDS011;9837;48.888;8.998;2024-03-23T12:50:14;7.73;;;2.40;;
19402;SDS011;9837;48.888;8.998;2024-03-23T12:52:40;11.33;;;3.23;;
19402;SDS011;9837;48.888;8.998;2024-03-23T12:55:06;6.57;;;2.77;;
19402;SDS011;9837;48.888;8.998;2024-03-23T12:57:32;6.20;;;2.60;;
19402;SDS011;9837;48.888;8.998;2024-03-23T12:59:58;9.33;;;2.33;;
19402;SDS011;9837;48.888;8.998;2024-03-23T13:02:24;6.03;;;2.10;;
19402;SDS011;9837;48.888;8.998;2024-03-23T13:04:50;8.13;;;2.83;;
19402;SDS011;9837;48.888;8.998;2024-03-23T13:07:17;6.40;;;2.50;;
19402;SDS011;9837;48.888;8.998;2024-03-23T13:09:43;5.13;;;1.97;;
19402;SDS011;9837;48.888;8.998;2024-03-23T13:12:09;7.07;;;2.40;;
19402;SDS011;9837;48.888;8.998;2024-03-23T13:14:35;9.20;;;2.43;;
19402;SDS011;9837;48.888;8.998;2024-03-23T13:17:01;6.87;;;2.70;;
19402;SDS011;9837;48.888;8.998;2024-03-23T13:19:27;7.10;;;2.67;;
19402;SDS011;9837;48.888;8.998;2024-03-23T13:21:55;7.70;;;2.40;;
19402;SDS011;9837;48.888;8.998;2024-03-23T13:24:24;4.10;;;2.03;;
19402;SDS011;9837;48.888;8.998;2024-03-23T13:26:51;5.13;;;2.27;;
19402;SDS011;9837;48.888;8.998;2024-03-23T13:29:17;6.80;;;2.40;;
19402;SDS011;9837;48.888;8.998;2024-03-23T13:31:43;3.97;;;1.57;;
19402;SDS011;9837;48.888;8.998;2024-03-23T13:34:09;4.73;;;1.80;;
19402;SDS011;9837;48.888;8.998;2024-03-23T13:36:35;3.07;;;1.37;;
19402;SDS011;9837;48.888;8.998;2024-03-23T13:39:02;6.83;;;1.70;;
19402;SDS011;9837;48.888;8.998;2024-03-23T13:41:36;5.10;;;2.30;;
19402;SDS011;9837;48.888;8.998;2024-03-23T13:44:03;13.37;;;1.83;;
19402;SDS011;9837;48.888;8.998;2024-03-23T13:46:29;6.07;;;1.73;;
19402;SDS011;9837;48.888;8.998;2024-03-23T13:48:55;7.73;;;2.03;;
19402;SDS011;9837;48.888;8.998;2024-03-23T13:51:26;5.80;;;2.10;;
19402;SDS011;9837;48.888;8.998;2024-03-23T13:53:55;9.23;;;1.80;;
19402;SDS011;9837;48.888;8.998;2024-03-23T13:56:23;14.07;;;2.03;;
19402;SDS011;9837;48.888;8.998;2024-03-23T13:58:48;4.47;;;1.80;;
19402;SDS011;9837;48.888;8.998;2024-03-23T14:01:15;12.13;;;2.17;;
19402;SDS011;9837;48.888;8.998;2024-03-23T14:03:41;7.27;;;1.93;;
19402;SDS011;9837;48.888;8.998;2024-03-23T14:06:07;8.87;;;1.90;;
19402;SDS011;9837;48.888;8.998;2024-03-23T14:08:34;10.03;;;2.00;;
19402;SDS011;9837;48.888;8.998;2024-03-23T14:11:01;118.90;;;11.87;;
19402;SDS011;9837;48.888;8.998;2024-03-23T14:13:28;7.27;;;1.93;;
19402;SDS011;9837;48.888;8.998;2024-03-23T14:15:54;3.60;;;2.00;;
19402;SDS011;9837;48.888;8.998;2024-03-23T14:18:20;8.37;;;2.23;;
19402;SDS011;9837;48.888;8.998;2024-03-23T14:20:57;3.60;;;1.70;;
19402;SDS011;9837;48.888;8.998;2024-03-23T14:23:25;6.40;;;2.00;;
19402;SDS011;9837;48.888;8.998;2024-03-23T14:25:52;5.20;;;1.77;;
19402;SDS011;9837;48.888;8.998;2024-03-23T14:28:18;13.43;;;2.07;;
19402;SDS011;9837;48.888;8.998;2024-03-23T14:30:45;6.50;;;1.60;;
19402;SDS011;9837;48.888;8.998;2024-03-23T14:33:11;7.53;;;1.97;;
19402;SDS011;9837;48.888;8.998;2024-03-23T14:35:37;2.87;;;1.60;;
19402;SDS011;9837;48.888;8.998;2024-03-23T14:38:04;4.60;;;1.97;;
19402;SDS011;9837;48.888;8.998;2024-03-23T14:40:30;4.33;;;1.67;;
19402;SDS011;9837;48.888;8.998;2024-03-23T14:42:56;4.93;;;1.50;;
19402;SDS011;9837;48.888;8.998;2024-03-23T14:45:22;3.93;;;1.30;;
19402;SDS011;9837;48.888;8.998;2024-03-23T14:47:50;3.30;;;1.20;;
19402;SDS011;9837;48.888;8.998;2024-03-23T14:50:16;4.03;;;1.40;;
19402;SDS011;9837;48.888;8.998;2024-03-23T14:52:43;4.20;;;1.33;;
19402;SDS011;9837;48.888;8.998;2024-03-23T14:55:10;6.30;;;1.90;;
19402;SDS011;9837;48.888;8.998;2024-03-23T14:57:36;3.07;;;1.23;;
19402;SDS011;9837;48.888;8.998;2024-03-23T15:00:04;2.93;;;1.10;;
19402;SDS011;9837;48.888;8.998;2024-03-23T15:02:37;2.90;;;1.40;;
19402;SDS011;9837;48.888;8.998;2024-03-23T15:05:03;4.87;;;1.17;;
19402;SDS011;9837;48.888;8.998;2024-03-23T15:07:32;4.47;;;1.33;;
19402;SDS011;9837;48.888;8.998;2024-03-23T15:09:58;3.70;;;1.33;;
19402;SDS011;9837;48.888;8.998;2024-03-23T15:12:24;2.73;;;1.20;;
19402;SDS011;9837;48.888;8.998;2024-03-23T15:14:49;3.87;;;1.03;;
19402;SDS011;9837;48.888;8.998;2024-03-23T15:17:15;1.83;;;0.93;;
19402;SDS011;9837;48.888;8.998;2024-03-23T15:19:41;2.73;;;1.00;;
19402;SDS011;9837;48.888;8.998;2024-03-23T15:22:08;1.70;;;0.83;;
19402;SDS011;9837;48.888;8.998;2024-03-23T15:24:34;1.60;;;0.70;;
19402;SDS011;9837;48.888;8.998;2024-03-23T15:27:01;3.20;;;1.10;;
19402;SDS011;9837;48.888;8.998;2024-03-23T15:29:27;2.70;;;0.90;;
19402;SDS011;9837;48.888;8.998;2024-03-23T15:31:53;0.90;;;0.90;;
19402;SDS011;9837;48.888;8.998;2024-03-23T15:34:19;2.20;;;0.90;;
19402;SDS011;9837;48.888;8.998;2024-03-23T15:36:48;1.23;;;0.97;;
19402;SDS011;9837;48.888;8.998;2024-03-23T15:39:15;1.97;;;1.10;;
19402;SDS011;9837;48.888;8.998;2024-03-23T15:41:43;1.40;;;1.13;;
19402;SDS011;9837;48.888;8.998;2024-03-23T15:44:09;3.43;;;1.37;;
19402;SDS011;9837;48.888;8.998;2024-03-23T15:46:38;3.53;;;1.63;;
19402;SDS011;9837;48.888;8.998;2024-03-23T15:49:07;1.80;;;1.00;;
19402;SDS011;9837;48.888;8.998;2024-03-23T15:51:35;2.27;;;1.40;;
19402;SDS011;9837;48.888;8.998;2024-03-23T15:54:02;2.70;;;1.13;;
19402;SDS011;9837;48.888;8.998;2024-03-23T15:56:31;2.47;;;1.20;;
19402;SDS011;9837;48.888;8.998;2024-03-23T15:58:57;2.33;;;1.10;;
19402;SDS011;9837;48.888;8.998;2024-03-23T16:01:30;3.93;;;1.10;;
19402;SDS011;9837;48.888;8.998;2024-03-23T16:03:58;4.30;;;2.13;;
19402;SDS011;9837;48.888;8.998;2024-03-23T16:06:24;3.97;;;1.23;;
19402;SDS011;9837;48.888;8.998;2024-03-23T16:08:50;4.97;;;1.07;;
19402;SDS011;9837;48.888;8.998;2024-03-23T16:11:17;3.97;;;1.17;;
19402;SDS011;9837;48.888;8.998;2024-03-23T16:13:43;1.83;;;1.27;;
19402;SDS011;9837;48.888;8.998;2024-03-23T16:16:11;3.50;;;1.20;;
19402;SDS011;9837;48.888;8.998;2024-03-23T16:18:37;2.40;;;1.10;;
19402;SDS011;9837;48.888;8.998;2024-03-23T16:21:06;2.50;;;1.20;;
19402;SDS011;9837;48.888;8.998;2024-03-23T16:23:33;1.80;;;1.17;;
19402;SDS011;9837;48.888;8.998;2024-03-23T16:26:00;4.20;;;1.53;;
19402;SDS011;9837;48.888;8.998;2024-03-23T16:28:34;1.93;;;0.80;;
19402;SDS011;9837;48.888;8.998;2024-03-23T16:31:01;2.40;;;1.30;;
19402;SDS011;9837;48.888;8.998;2024-03-23T16:33:28;6.03;;;1.67;;
19402;SDS011;9837;48.888;8.998;2024-03-23T16:38:33;3.23;;;1.30;;
19402;SDS011;9837;48.888;8.998;2024-03-23T16:41:18;1.43;;;1.00;;
19402;SDS011;9837;48.888;8.998;2024-03-23T16:43:44;2.57;;;0.97;;
19402;SDS011;9837;48.888;8.998;2024-03-23T16:46:14;4.17;;;1.03;;
19402;SDS011;9837;48.888;8.998;2024-03-23T16:48:43;1.17;;;0.70;;
19402;SDS011;9837;48.888;8.998;2024-03-23T16:51:11;0.77;;;0.63;;
19402;SDS011;9837;48.888;8.998;2024-03-23T16:53:37;4.37;;;1.00;;
19402;SDS011;9837;48.888;8.998;2024-03-23T16:56:23;2.20;;;1.07;;
19402;SDS011;9837;48.888;8.998;2024-03-23T16:58:54;5.13;;;1.23;;
19402;SDS011;9837;48.888;8.998;2024-03-23T17:01:20;2.43;;;1.07;;
19402;SDS011;9837;48.888;8.998;2024-03-23T17:03:52;2.23;;;1.20;;
19402;SDS011;9837;48.888;8.998;2024-03-23T17:06:18;1.90;;;1.03;;